Time;durP1;ratioP1;P1;durP2;ratioP2;P2;SDS_P1;SDS_P2;PMS_P1;PMS_P2;Temp;Humidity;BMP_temperature;BMP_pressure;BME280_temperature;BME280_humidity;BME280_pressure;Samples;Min_cycle;Max_cycle;Signal;HPM_P1;HPM_P2
2020/12/24 00:01:57;;;;;;;2.43;1.70;;;9.40;99.90;;;;;;4903194;29;20698;-74
2020/12/24 00:04:22;;;;;;;5.43;2.77;;;9.40;99.90;;;;;;4884827;29;20221;-74
2020/12/24 00:06:48;;;;;;;5.07;1.97;;;9.30;99.90;;;;;;4899827;29;20225;-74
2020/12/24 00:09:14;;;;;;;1.83;1.60;;;9.30;99.90;;;;;;4914606;29;20311;-74
2020/12/24 00:11:40;;;;;;;2.97;1.90;;;9.30;99.90;;;;;;4919012;29;20299;-74
2020/12/24 00:14:05;;;;;;;3.83;3.33;;;9.30;99.90;;;;;;4886654;29;20230;-74
2020/12/24 00:16:31;;;;;;;2.93;1.90;;;9.20;99.90;;;;;;4915930;29;20229;-74
2020/12/24 00:18:57;;;;;;;4.57;2.03;;;9.20;99.90;;;;;;4869174;29;20225;-74
2020/12/24 00:21:23;;;;;;;8.77;2.80;;;9.20;99.90;;;;;;4869301;29;20627;-74
2020/12/24 00:23:48;;;;;;;3.73;2.33;;;9.20;99.90;;;;;;4909477;28;20227;-74
2020/12/24 00:26:14;;;;;;;4.47;2.10;;;9.20;99.90;;;;;;4886973;29;21019;-74
2020/12/24 00:28:40;;;;;;;12.87;4.47;;;9.10;99.90;;;;;;4884944;29;20228;-74
2020/12/24 00:31:07;;;;;;;6.67;3.83;;;9.10;99.90;;;;;;4885101;29;20227;-74
2020/12/24 00:33:33;;;;;;;3.33;2.20;;;9.10;99.90;;;;;;4918982;29;20235;-74
2020/12/24 00:35:59;;;;;;;7.67;2.50;;;9.20;99.90;;;;;;4917395;29;20517;-74
2020/12/24 00:38:25;;;;;;;5.33;2.90;;;9.20;99.90;;;;;;4918287;29;20220;-74
2020/12/24 00:40:51;;;;;;;6.20;2.67;;;9.20;99.90;;;;;;4883699;29;20487;-74
2020/12/24 00:43:16;;;;;;;8.10;3.37;;;9.20;99.90;;;;;;4901860;29;20235;-74
2020/12/24 00:45:42;;;;;;;5.87;3.83;;;9.20;99.90;;;;;;4888157;28;20721;-75
2020/12/24 00:48:08;;;;;;;12.67;4.13;;;9.10;99.90;;;;;;4919026;29;20226;-75
2020/12/24 00:50:33;;;;;;;14.53;6.17;;;9.20;99.90;;;;;;4914739;29;20239;-74
2020/12/24 00:53:00;;;;;;;14.57;6.63;;;9.20;99.90;;;;;;4900832;28;20374;-74
2020/12/24 00:55:27;;;;;;;14.83;5.90;;;9.20;99.90;;;;;;4902707;29;20455;-75
2020/12/24 00:57:54;;;;;;;12.00;5.20;;;9.20;99.90;;;;;;4883549;29;20467;-74
2020/12/24 01:00:20;;;;;;;19.13;7.30;;;9.20;99.90;;;;;;4901916;29;20447;-74
2020/12/24 01:02:46;;;;;;;15.97;6.70;;;9.20;99.90;;;;;;4904680;29;21850;-74
2020/12/24 01:05:12;;;;;;;15.57;5.63;;;9.10;99.90;;;;;;4887927;29;20232;-74
2020/12/24 01:07:37;;;;;;;15.83;7.40;;;9.10;99.90;;;;;;4910725;29;20224;-74
2020/12/24 01:10:06;;;;;;;31.30;10.60;;;9.10;99.90;;;;;;4905677;29;20321;-74
2020/12/24 01:12:32;;;;;;;33.53;12.90;;;9.10;99.90;;;;;;4921160;28;20220;-74
2020/12/24 01:14:58;;;;;;;19.80;6.83;;;9.10;99.90;;;;;;4904910;29;20482;-75
2020/12/24 01:17:24;;;;;;;16.10;5.33;;;9.10;99.90;;;;;;4906570;29;20977;-74
2020/12/24 01:19:49;;;;;;;10.93;4.10;;;9.00;99.90;;;;;;4906060;28;20226;-74
2020/12/24 01:22:15;;;;;;;17.57;8.27;;;9.00;99.90;;;;;;4890858;29;20656;-74
2020/12/24 01:24:41;;;;;;;15.80;7.40;;;9.00;99.90;;;;;;4888985;29;20243;-74
2020/12/24 01:27:06;;;;;;;19.77;8.10;;;8.90;99.90;;;;;;4887491;29;20220;-74
2020/12/24 01:29:32;;;;;;;20.57;8.20;;;8.90;99.90;;;;;;4892717;29;20251;-75
2020/12/24 01:31:58;;;;;;;26.73;10.43;;;8.90;99.90;;;;;;4900831;29;20252;-74
2020/12/24 01:34:23;;;;;;;15.80;4.57;;;8.90;99.90;;;;;;4919552;29;20652;-74
2020/12/24 01:36:49;;;;;;;6.20;3.00;;;8.80;99.90;;;;;;4889662;29;20271;-74
2020/12/24 01:39:15;;;;;;;14.73;4.77;;;8.80;99.90;;;;;;4888117;29;20564;-74
2020/12/24 01:41:41;;;;;;;29.50;9.67;;;8.80;99.90;;;;;;4921160;29;20324;-74
2020/12/24 01:44:07;;;;;;;25.63;9.77;;;8.80;99.90;;;;;;4904901;29;20248;-74
2020/12/24 01:46:32;;;;;;;27.70;8.63;;;8.70;99.90;;;;;;4886792;29;20501;-74
2020/12/24 01:48:58;;;;;;;46.03;17.90;;;8.70;99.90;;;;;;4876214;29;20223;-74
2020/12/24 01:51:30;;;;;;;58.43;23.50;;;8.70;99.90;;;;;;4920934;29;20310;-74
2020/12/24 01:53:58;;;;;;;35.13;15.83;;;8.70;99.90;;;;;;4913880;29;20227;-74
2020/12/24 01:56:24;;;;;;;20.07;8.80;;;8.70;99.90;;;;;;4887040;29;20561;-74
2020/12/24 01:58:52;;;;;;;14.23;5.97;;;8.70;99.90;;;;;;4905405;29;20451;-74
2020/12/24 02:01:18;;;;;;;29.23;10.30;;;8.60;99.90;;;;;;4920925;29;20463;-74
2020/12/24 02:03:44;;;;;;;40.27;12.33;;;8.60;99.90;;;;;;4920330;29;20479;-75
2020/12/24 02:06:11;;;;;;;25.77;10.83;;;8.60;99.90;;;;;;4918248;29;20464;-74
2020/12/24 02:08:37;;;;;;;18.17;7.03;;;8.60;99.90;;;;;;4907981;29;20259;-74
2020/12/24 02:11:03;;;;;;;26.53;12.00;;;8.50;99.90;;;;;;4932745;29;20449;-74
2020/12/24 02:13:29;;;;;;;28.17;11.57;;;8.50;99.90;;;;;;4932325;28;20479;-74
2020/12/24 02:15:55;;;;;;;43.57;16.70;;;8.50;99.90;;;;;;4903091;29;20224;-74
2020/12/24 02:18:21;;;;;;;34.60;12.30;;;8.50;99.90;;;;;;4920263;29;20251;-74
2020/12/24 02:20:47;;;;;;;22.23;9.80;;;8.40;99.90;;;;;;4919614;28;21000;-74
2020/12/24 02:23:13;;;;;;;24.33;9.57;;;8.40;99.90;;;;;;4916548;29;20233;-74
2020/12/24 02:25:42;;;;;;;26.63;9.87;;;8.40;99.90;;;;;;4917567;29;20893;-74
2020/12/24 02:28:08;;;;;;;15.37;6.03;;;8.40;99.90;;;;;;4914540;29;20451;-74
2020/12/24 02:30:35;;;;;;;24.83;8.07;;;8.30;99.90;;;;;;4919602;29;21052;-74
2020/12/24 02:33:00;;;;;;;21.77;9.77;;;8.30;99.90;;;;;;4917882;29;20494;-74
2020/12/24 02:35:26;;;;;;;29.33;10.73;;;8.30;99.90;;;;;;4920022;29;21019;-74
2020/12/24 02:37:52;;;;;;;19.37;7.73;;;8.20;99.90;;;;;;4904352;29;20220;-74
2020/12/24 02:40:17;;;;;;;21.20;5.90;;;8.20;99.90;;;;;;4919986;29;20223;-74
2020/12/24 02:42:43;;;;;;;21.17;8.53;;;8.10;99.90;;;;;;4918122;28;20317;-74
2020/12/24 02:45:09;;;;;;;6.87;3.53;;;8.10;99.90;;;;;;4919181;28;20295;-74
2020/12/24 02:47:37;;;;;;;16.63;5.40;;;8.00;99.90;;;;;;4905005;29;20248;-74
2020/12/24 02:50:07;;;;;;;14.40;7.03;;;8.00;99.90;;;;;;4920172;28;20216;-74
2020/12/24 02:52:33;;;;;;;15.10;7.20;;;7.90;99.90;;;;;;4920122;28;20467;-74
2020/12/24 02:54:58;;;;;;;13.60;6.40;;;7.90;99.90;;;;;;4919502;29;20460;-74
2020/12/24 02:57:24;;;;;;;9.20;4.27;;;7.90;99.90;;;;;;4889070;29;20461;-74
2020/12/24 02:59:50;;;;;;;9.20;4.80;;;7.90;99.90;;;;;;4888432;29;20302;-74
2020/12/24 03:02:15;;;;;;;12.27;5.47;;;7.90;99.90;;;;;;4905223;29;20219;-73
2020/12/24 03:04:41;;;;;;;7.00;3.00;;;7.90;99.90;;;;;;4887830;29;20236;-73
2020/12/24 03:07:07;;;;;;;5.57;3.10;;;7.80;99.90;;;;;;4903934;29;20223;-73
2020/12/24 03:09:32;;;;;;;5.90;3.53;;;7.80;99.90;;;;;;4886202;28;20220;-73
2020/12/24 03:11:58;;;;;;;5.20;3.13;;;7.80;99.90;;;;;;4880359;29;20232;-73
2020/12/24 03:14:24;;;;;;;5.13;2.43;;;7.80;99.90;;;;;;4904637;29;20274;-73
2020/12/24 03:16:50;;;;;;;4.40;3.70;;;7.80;99.90;;;;;;4902376;28;20685;-73
2020/12/24 03:19:15;;;;;;;3.87;2.77;;;7.80;99.90;;;;;;4902621;29;20650;-73
2020/12/24 03:21:41;;;;;;;5.73;2.63;;;7.80;99.90;;;;;;4919968;29;20250;-73
2020/12/24 03:24:07;;;;;;;6.30;2.80;;;7.70;99.90;;;;;;4919246;28;20323;-73
2020/12/24 03:26:33;;;;;;;5.87;2.57;;;7.70;99.90;;;;;;4909117;28;20704;-73
2020/12/24 03:28:59;;;;;;;3.03;2.67;;;7.70;99.90;;;;;;4909782;29;20271;-73
2020/12/24 03:31:25;;;;;;;5.17;2.50;;;7.70;99.90;;;;;;4919434;29;20259;-73
2020/12/24 03:33:52;;;;;;;5.80;2.20;;;7.60;99.90;;;;;;4919058;28;20460;-73
2020/12/24 03:36:19;;;;;;;5.40;2.30;;;7.60;99.90;;;;;;4901427;29;20487;-73
2020/12/24 03:38:45;;;;;;;2.57;2.37;;;7.50;99.90;;;;;;4934798;29;20460;-73
2020/12/24 03:41:11;;;;;;;2.03;1.73;;;7.50;99.90;;;;;;4912732;29;20468;-73
2020/12/24 03:43:37;;;;;;;2.50;2.00;;;7.50;99.90;;;;;;4918856;29;20230;-73
2020/12/24 03:46:03;;;;;;;2.23;1.63;;;7.50;99.90;;;;;;4899909;29;20468;-73
2020/12/24 03:48:28;;;;;;;2.77;1.80;;;7.50;99.90;;;;;;4888699;29;20323;-73
2020/12/24 03:50:54;;;;;;;2.03;1.60;;;7.50;99.90;;;;;;4916134;28;20291;-73
2020/12/24 03:53:20;;;;;;;5.47;1.47;;;7.50;99.90;;;;;;4886778;29;20710;-73
2020/12/24 03:55:46;;;;;;;1.87;1.13;;;7.50;99.90;;;;;;4916756;28;20220;-73
2020/12/24 03:58:12;;;;;;;2.27;0.90;;;7.50;99.90;;;;;;4898234;29;20976;-73
2020/12/24 04:00:39;;;;;;;2.50;0.70;;;7.50;99.90;;;;;;4916166;29;20233;-73
2020/12/24 04:03:05;;;;;;;0.73;0.73;;;7.40;99.90;;;;;;4900666;29;20327;-73
2020/12/24 04:05:31;;;;;;;12.20;1.27;;;7.40;99.90;;;;;;4915851;29;20477;-73
2020/12/24 04:07:57;;;;;;;3.67;1.20;;;7.30;99.90;;;;;;4925893;29;20883;-73
2020/12/24 04:10:23;;;;;;;1.73;0.70;;;7.30;99.90;;;;;;4914077;28;20576;-73
2020/12/24 04:12:48;;;;;;;0.90;0.57;;;7.30;99.90;;;;;;4905307;28;20604;-73
2020/12/24 04:15:14;;;;;;;1.47;0.73;;;7.30;99.90;;;;;;4924350;29;20712;-73
2020/12/24 04:17:40;;;;;;;2.37;0.70;;;7.20;99.90;;;;;;4908210;29;20244;-73
2020/12/24 04:20:06;;;;;;;1.43;0.60;;;7.20;99.90;;;;;;4917888;29;20600;-73
2020/12/24 04:22:32;;;;;;;1.20;0.83;;;7.20;99.90;;;;;;4916231;29;20256;-73
2020/12/24 04:24:59;;;;;;;2.20;0.83;;;7.20;99.90;;;;;;4912970;28;20229;-73
2020/12/24 04:27:25;;;;;;;0.67;0.50;;;7.20;99.90;;;;;;4916679;29;20218;-73
2020/12/24 04:29:50;;;;;;;2.37;1.23;;;7.20;99.90;;;;;;4918258;29;20538;-73
2020/12/24 04:32:16;;;;;;;3.63;1.00;;;7.20;99.90;;;;;;4905966;29;20648;-73
2020/12/24 04:34:42;;;;;;;5.43;0.67;;;7.20;99.90;;;;;;4909805;28;20746;-74
2020/12/24 04:37:08;;;;;;;1.87;1.00;;;7.20;99.90;;;;;;4899406;28;20555;-73
2020/12/24 04:39:33;;;;;;;2.20;0.60;;;7.20;99.90;;;;;;4897991;28;20225;-73
2020/12/24 04:41:59;;;;;;;2.33;1.13;;;7.20;99.90;;;;;;4920528;28;20311;-73
2020/12/24 04:44:26;;;;;;;1.30;0.80;;;7.20;99.90;;;;;;4917453;29;20239;-73
2020/12/24 04:46:57;;;;;;;1.33;0.70;;;7.20;99.90;;;;;;4907184;29;20543;-73
2020/12/24 04:49:30;;;;;;;3.90;0.60;;;7.20;99.90;;;;;;4898582;29;20471;-73
2020/12/24 04:51:55;;;;;;;2.67;0.77;;;7.20;99.90;;;;;;4932090;28;20467;-73
2020/12/24 04:54:22;;;;;;;0.87;0.70;;;7.20;99.90;;;;;;4901203;29;20481;-73
2020/12/24 04:56:48;;;;;;;1.30;0.93;;;7.20;99.90;;;;;;4917793;29;20240;-73
2020/12/24 04:59:16;;;;;;;1.10;0.83;;;7.20;99.90;;;;;;4885210;29;20490;-72
2020/12/24 05:01:42;;;;;;;1.53;0.80;;;7.30;99.90;;;;;;4900022;29;20212;-73
2020/12/24 05:04:08;;;;;;;0.93;0.60;;;7.30;99.90;;;;;;4886620;29;20483;-73
2020/12/24 05:06:34;;;;;;;5.07;0.93;;;7.30;99.90;;;;;;4905015;29;20902;-73
2020/12/24 05:09:00;;;;;;;0.50;0.50;;;7.30;99.90;;;;;;4905844;29;20216;-73
2020/12/24 05:11:33;;;;;;;0.70;0.70;;;7.30;99.90;;;;;;4919811;29;20252;-73
2020/12/24 05:14:19;;;;;;;2.30;0.90;;;7.30;99.90;;;;;;4912118;29;20464;-73
2020/12/24 05:17:05;;;;;;;4.53;0.90;;;7.40;99.90;;;;;;4918381;28;20451;-73
2020/12/24 05:19:47;;;;;;;1.17;0.70;;;7.30;99.90;;;;;;4931363;29;20479;-73
2020/12/24 05:22:20;;;;;;;2.30;0.80;;;7.30;99.90;;;;;;4918633;29;20466;-73
2020/12/24 05:24:47;;;;;;;5.93;0.80;;;7.30;99.90;;;;;;4909677;29;20467;-73
2020/12/24 05:27:20;;;;;;;2.87;0.63;;;7.30;99.90;;;;;;4918934;29;20481;-73
2020/12/24 05:29:48;;;;;;;5.13;0.80;;;7.30;99.90;;;;;;4888227;29;20487;-73
2020/12/24 05:32:14;;;;;;;2.70;0.60;;;7.30;99.90;;;;;;4899617;29;20437;-71
2020/12/24 05:34:40;;;;;;;1.00;0.90;;;7.30;99.90;;;;;;4914973;29;20540;-71
2020/12/24 05:37:14;;;;;;;1.50;0.70;;;7.40;99.90;;;;;;4918149;29;21051;-72
2020/12/24 05:39:41;;;;;;;2.00;0.60;;;7.40;99.90;;;;;;4918632;29;20452;-74
2020/12/24 05:42:07;;;;;;;2.10;0.90;;;7.40;99.90;;;;;;4902307;29;20435;-73
2020/12/24 05:44:33;;;;;;;8.23;1.10;;;7.40;99.90;;;;;;4917295;29;20479;-73
2020/12/24 05:46:59;;;;;;;1.10;1.10;;;7.40;99.90;;;;;;4919162;29;20459;-73
2020/12/24 05:49:27;;;;;;;1.30;0.67;;;7.40;99.90;;;;;;4895891;29;20472;-73
2020/12/24 05:51:56;;;;;;;6.20;1.87;;;7.40;99.90;;;;;;4905797;28;20500;-74
2020/12/24 05:54:22;;;;;;;3.10;0.80;;;7.40;99.90;;;;;;4906540;29;20518;-74
2020/12/24 05:56:55;;;;;;;0.40;0.30;;;7.40;99.90;;;;;;4901918;29;20461;-71
2020/12/24 05:59:24;;;;;;;3.63;0.67;;;7.40;99.90;;;;;;4905775;29;20235;-73
2020/12/24 06:02:14;;;;;;;2.67;0.90;;;7.40;99.90;;;;;;4920569;29;20467;-73
2020/12/24 06:04:45;;;;;;;2.33;0.70;;;7.40;99.90;;;;;;4915642;29;20467;-73
2020/12/24 06:07:20;;;;;;;0.70;0.57;;;7.40;99.90;;;;;;4937072;29;20448;-74
2020/12/24 06:09:48;;;;;;;0.60;0.37;;;7.40;99.90;;;;;;4921190;28;20444;-73
2020/12/24 06:12:19;;;;;;;1.03;0.57;;;7.40;99.90;;;;;;4921661;29;20796;-73
2020/12/24 06:14:51;;;;;;;1.57;0.50;;;7.40;99.90;;;;;;4890205;28;20463;-74
2020/12/24 06:17:19;;;;;;;0.47;0.40;;;7.40;99.90;;;;;;4921557;29;20455;-74
2020/12/24 06:19:45;;;;;;;0.50;0.40;;;7.40;99.90;;;;;;4889788;29;20495;-74
2020/12/24 06:22:11;;;;;;;2.37;1.00;;;7.40;99.90;;;;;;4921467;29;20535;-74
2020/12/24 06:24:44;;;;;;;2.50;1.20;;;7.40;99.90;;;;;;4936878;29;20506;-74
2020/12/24 06:27:23;;;;;;;2.17;0.70;;;7.40;99.90;;;;;;4921147;29;20274;-74
2020/12/24 06:29:51;;;;;;;0.87;0.70;;;7.40;99.90;;;;;;4920785;28;20462;-73
2020/12/24 06:32:22;;;;;;;0.73;0.70;;;7.30;99.90;;;;;;4921596;29;20439;-74
2020/12/24 06:34:47;;;;;;;0.80;0.70;;;7.40;99.90;;;;;;4921047;28;20463;-74
2020/12/24 06:37:20;;;;;;;0.50;0.50;;;7.40;99.90;;;;;;4920949;29;20466;-73
2020/12/24 06:39:50;;;;;;;1.70;0.93;;;7.40;99.90;;;;;;4920680;29;20291;-73
2020/12/24 06:42:44;;;;;;;0.40;0.40;;;7.40;99.90;;;;;;4918972;29;20500;-73
2020/12/24 06:45:28;;;;;;;0.70;0.67;;;7.40;99.90;;;;;;4905283;29;20514;-72
2020/12/24 06:48:12;;;;;;;1.60;0.90;;;7.40;99.90;;;;;;4920456;29;20447;-73
2020/12/24 06:50:42;;;;;;;1.60;0.67;;;7.40;99.90;;;;;;4936771;29;20841;-73
2020/12/24 06:53:24;;;;;;;0.40;0.40;;;7.40;99.90;;;;;;4920356;28;20639;-73
2020/12/24 06:56:23;;;;;;;4.00;1.10;;;7.40;99.90;;;;;;4904825;28;20456;-74
2020/12/24 06:58:52;;;;;;;1.60;1.50;;;7.40;99.90;;;;;;4917102;29;20543;-73
2020/12/24 07:01:27;;;;;;;1.60;1.50;;;7.40;99.90;;;;;;4901436;29;20507;-73
2020/12/24 07:03:54;;;;;;;2.70;1.43;;;7.40;99.90;;;;;;4901285;29;20491;-72
2020/12/24 07:06:43;;;;;;;3.33;2.00;;;7.40;99.90;;;;;;4886361;29;20465;-73
2020/12/24 07:09:32;;;;;;;4.00;1.60;;;7.40;99.90;;;;;;4901724;29;20464;-73
2020/12/24 07:12:01;;;;;;;8.77;2.93;;;7.40;99.90;;;;;;4903437;29;20511;-73
2020/12/24 07:14:30;;;;;;;14.63;7.70;;;7.40;99.90;;;;;;4920250;29;20464;-73
2020/12/24 07:16:58;;;;;;;33.27;14.93;;;7.40;99.90;;;;;;4920075;28;20483;-73
2020/12/24 07:19:24;;;;;;;21.50;11.20;;;7.40;99.90;;;;;;4920402;29;20452;-73
2020/12/24 07:21:53;;;;;;;8.10;5.10;;;7.40;99.90;;;;;;4919685;29;20476;-74
2020/12/24 07:24:27;;;;;;;7.70;6.60;;;7.40;99.90;;;;;;4920138;28;20861;-73
2020/12/24 07:27:00;;;;;;;5.70;5.20;;;7.40;99.90;;;;;;4896530;28;20456;-73
2020/12/24 07:29:28;;;;;;;4.33;4.00;;;7.40;99.90;;;;;;4904207;28;20463;-73
2020/12/24 07:31:55;;;;;;;3.10;2.80;;;7.40;99.90;;;;;;4903963;29;20456;-73
2020/12/24 07:34:33;;;;;;;2.90;2.70;;;7.40;99.90;;;;;;4888655;29;21068;-73
2020/12/24 07:36:59;;;;;;;5.10;3.97;;;7.40;99.90;;;;;;4902238;29;20860;-74
2020/12/24 07:39:24;;;;;;;6.30;5.37;;;7.40;99.90;;;;;;4916926;29;20560;-73
2020/12/24 07:41:51;;;;;;;11.77;7.47;;;7.40;99.90;;;;;;4875110;29;20299;-73
2020/12/24 07:44:18;;;;;;;8.77;5.27;;;7.40;99.90;;;;;;4919229;29;20685;-74
2020/12/24 07:46:51;;;;;;;7.93;3.80;;;7.40;99.90;;;;;;4919327;29;20472;-73
2020/12/24 07:49:20;;;;;;;5.90;3.00;;;7.30;99.90;;;;;;4919802;29;20456;-74
2020/12/24 07:51:57;;;;;;;7.23;3.83;;;7.30;99.90;;;;;;4919411;29;21281;-73
2020/12/24 07:54:25;;;;;;;6.83;4.10;;;7.30;99.90;;;;;;4903254;29;20508;-73
2020/12/24 07:56:52;;;;;;;8.27;4.00;;;7.30;99.90;;;;;;4918812;29;20460;-73
2020/12/24 07:59:18;;;;;;;13.07;6.90;;;7.20;99.90;;;;;;4916405;29;20546;-73
2020/12/24 08:01:51;;;;;;;9.60;5.37;;;7.20;99.90;;;;;;4918526;28;20830;-73
2020/12/24 08:04:17;;;;;;;5.60;3.30;;;7.20;99.90;;;;;;4912705;29;20479;-73
2020/12/24 08:06:43;;;;;;;4.70;2.60;;;7.10;99.90;;;;;;4919219;29;20554;-73
2020/12/24 08:09:18;;;;;;;5.03;3.70;;;7.10;99.90;;;;;;4903569;29;20220;-73
2020/12/24 08:11:55;;;;;;;4.90;3.00;;;7.10;99.90;;;;;;4906156;29;20460;-72
2020/12/24 08:14:22;;;;;;;1.40;1.30;;;7.10;99.90;;;;;;4909626;29;20451;-72
2020/12/24 08:16:49;;;;;;;1.17;1.10;;;7.10;99.90;;;;;;4918804;28;20491;-73
2020/12/24 08:19:39;;;;;;;1.93;0.87;;;7.10;99.90;;;;;;4919127;29;20518;-73
2020/12/24 08:22:23;;;;;;;1.63;1.10;;;7.10;99.90;;;;;;4934338;28;20447;-73
2020/12/24 08:24:51;;;;;;;2.10;1.40;;;7.10;99.90;;;;;;4918320;29;20467;-73
2020/12/24 08:27:17;;;;;;;3.90;1.87;;;7.10;99.90;;;;;;4919218;29;20534;-73
2020/12/24 08:29:45;;;;;;;2.10;1.93;;;7.10;99.90;;;;;;4903691;29;20460;-73
2020/12/24 08:32:11;;;;;;;1.47;0.73;;;7.10;99.90;;;;;;4923813;29;20487;-73
2020/12/24 08:34:38;;;;;;;1.23;0.80;;;7.10;99.90;;;;;;4914141;29;20535;-73
2020/12/24 08:37:24;;;;;;;0.83;0.83;;;7.10;99.90;;;;;;4898471;29;20449;-73
2020/12/24 08:39:50;;;;;;;0.90;0.80;;;7.00;99.90;;;;;;4894211;29;20852;-72
2020/12/24 08:42:18;;;;;;;0.83;0.53;;;7.00;99.90;;;;;;4892365;29;20528;-73
2020/12/24 08:44:43;;;;;;;1.80;0.60;;;7.10;99.90;;;;;;4899587;29;20217;-73
2020/12/24 08:47:10;;;;;;;1.47;1.00;;;7.10;99.90;;;;;;4885028;29;20971;-73
2020/12/24 08:49:44;;;;;;;13.33;8.00;;;7.10;99.90;;;;;;4897190;29;20589;-73
2020/12/24 08:52:11;;;;;;;2.37;1.83;;;7.10;99.90;;;;;;4899600;29;20519;-73
2020/12/24 08:54:38;;;;;;;2.53;2.13;;;7.10;99.90;;;;;;4892919;29;20459;-72
2020/12/24 08:57:10;;;;;;;8.53;7.03;;;7.10;99.90;;;;;;4918872;29;20455;-73
2020/12/24 08:59:36;;;;;;;4.77;3.50;;;7.10;99.90;;;;;;4919003;29;20464;-73
2020/12/24 09:02:02;;;;;;;20.50;9.13;;;7.10;99.90;;;;;;4887027;29;20807;-73
2020/12/24 09:04:27;;;;;;;13.43;9.30;;;7.10;99.90;;;;;;4919184;29;20220;-73
2020/12/24 09:06:53;;;;;;;11.80;8.47;;;7.10;99.90;;;;;;4904903;29;20239;-73
2020/12/24 09:09:24;;;;;;;14.33;10.13;;;7.10;99.90;;;;;;4893758;29;20962;-73
2020/12/24 09:11:51;;;;;;;3.27;2.30;;;7.20;99.90;;;;;;4914546;29;20311;-73
2020/12/24 09:14:24;;;;;;;2.10;2.00;;;7.20;99.90;;;;;;4884647;29;20972;-73
2020/12/24 09:16:58;;;;;;;2.37;1.80;;;7.20;99.90;;;;;;4918425;29;20546;-73
2020/12/24 09:19:24;;;;;;;2.93;2.40;;;7.20;99.90;;;;;;4919190;29;20499;-73
2020/12/24 09:21:58;;;;;;;1.93;1.80;;;7.20;99.90;;;;;;4898940;29;20985;-73
2020/12/24 09:24:27;;;;;;;5.63;5.13;;;7.20;99.90;;;;;;4903878;29;20996;-73
2020/12/24 09:26:55;;;;;;;5.10;3.97;;;7.20;99.90;;;;;;4894154;29;20502;-73
2020/12/24 09:29:22;;;;;;;17.13;9.53;;;7.20;99.90;;;;;;4903938;29;20527;-73
2020/12/24 09:31:59;;;;;;;21.33;12.53;;;7.20;99.90;;;;;;4902452;29;20468;-73
2020/12/24 09:34:29;;;;;;;7.30;5.00;;;7.20;99.90;;;;;;4888183;29;20462;-73
2020/12/24 09:36:55;;;;;;;2.23;2.13;;;7.20;99.90;;;;;;4893093;29;20460;-73
2020/12/24 09:39:26;;;;;;;1.57;1.47;;;7.20;99.90;;;;;;4903595;29;20881;-73
2020/12/24 09:41:52;;;;;;;1.10;1.10;;;7.20;99.90;;;;;;4903181;28;20465;-73
2020/12/24 09:44:18;;;;;;;0.97;0.97;;;7.30;99.90;;;;;;4902556;29;21106;-73
2020/12/24 09:46:47;;;;;;;1.47;1.37;;;7.30;99.90;;;;;;4902990;29;20307;-73
2020/12/24 09:49:13;;;;;;;0.50;0.50;;;7.30;99.90;;;;;;4904253;29;20463;-73
2020/12/24 09:51:39;;;;;;;0.67;0.43;;;7.30;99.90;;;;;;4918429;29;20573;-72
2020/12/24 09:54:05;;;;;;;0.80;0.80;;;7.30;99.90;;;;;;4905769;29;21024;-73
2020/12/24 09:56:31;;;;;;;1.20;0.53;;;7.30;99.90;;;;;;4922205;29;20235;-73
2020/12/24 09:58:57;;;;;;;0.50;0.50;;;7.40;99.90;;;;;;4921150;28;20455;-73
2020/12/24 10:01:23;;;;;;;0.40;0.40;;;7.40;99.90;;;;;;4913953;29;20456;-73
2020/12/24 10:03:49;;;;;;;0.70;0.60;;;7.40;99.90;;;;;;4904482;28;21817;-73
2020/12/24 10:06:15;;;;;;;0.50;0.50;;;7.40;99.90;;;;;;4917202;28;20231;-73
2020/12/24 10:08:44;;;;;;;3.90;0.43;;;7.40;99.90;;;;;;4919741;29;20753;-73
2020/12/24 10:11:14;;;;;;;0.40;0.30;;;7.40;99.90;;;;;;4920669;29;20455;-74
2020/12/24 10:13:51;;;;;;;2.20;1.10;;;7.50;99.90;;;;;;4913368;29;20608;-73
2020/12/24 10:16:17;;;;;;;21.80;13.80;;;7.50;99.90;;;;;;4921024;29;20455;-73
2020/12/24 10:18:42;;;;;;;11.50;9.20;;;7.50;99.90;;;;;;4890323;29;20531;-74
2020/12/24 10:21:10;;;;;;;6.50;4.87;;;7.50;99.90;;;;;;4919666;29;20298;-73
2020/12/24 10:23:35;;;;;;;5.43;5.03;;;7.50;99.90;;;;;;4921256;29;20219;-73
2020/12/24 10:26:01;;;;;;;3.00;2.80;;;7.60;99.90;;;;;;4889498;29;20472;-73
2020/12/24 10:28:27;;;;;;;1.90;1.80;;;7.60;99.90;;;;;;4905886;29;20235;-73
2020/12/24 10:30:52;;;;;;;1.40;1.30;;;7.60;99.90;;;;;;4885963;29;20232;-73
2020/12/24 10:33:18;;;;;;;3.90;3.53;;;7.60;99.90;;;;;;4908386;29;20228;-74
2020/12/24 10:35:44;;;;;;;13.10;8.37;;;7.70;99.90;;;;;;4903964;29;20220;-73
2020/12/24 10:38:09;;;;;;;20.17;10.87;;;7.70;99.90;;;;;;4921181;29;20222;-73
2020/12/24 10:40:35;;;;;;;6.23;5.30;;;7.70;99.90;;;;;;4889269;29;20228;-73
2020/12/24 10:43:02;;;;;;;4.20;2.97;;;7.70;99.90;;;;;;4919548;29;20231;-73
2020/12/24 10:45:40;;;;;;;4.57;3.30;;;7.80;99.90;;;;;;4915333;29;20320;-73
2020/12/24 10:48:06;;;;;;;5.27;4.10;;;7.80;99.90;;;;;;4885274;29;20893;-73
2020/12/24 10:50:31;;;;;;;5.87;4.40;;;7.80;99.90;;;;;;4886552;29;20469;-73
2020/12/24 10:52:57;;;;;;;3.50;3.20;;;7.80;99.90;;;;;;4901757;28;20637;-74
2020/12/24 10:55:23;;;;;;;5.40;2.27;;;7.90;99.90;;;;;;4914577;29;20216;-73
2020/12/24 10:57:48;;;;;;;3.27;1.77;;;7.90;99.90;;;;;;4888877;28;20277;-73
2020/12/24 11:00:15;;;;;;;1.80;1.70;;;7.90;99.90;;;;;;4904517;29;20226;-73
2020/12/24 11:02:40;;;;;;;1.90;1.80;;;7.90;99.90;;;;;;4920373;28;20267;-74
2020/12/24 11:05:06;;;;;;;3.83;1.73;;;8.00;99.90;;;;;;4904030;28;20466;-74
2020/12/24 11:07:32;;;;;;;1.00;1.00;;;8.00;99.90;;;;;;4920621;29;20236;-73
2020/12/24 11:09:59;;;;;;;0.73;0.70;;;8.00;99.90;;;;;;4903781;28;20248;-73
2020/12/24 11:12:25;;;;;;;0.80;0.80;;;8.10;99.90;;;;;;4936329;28;21063;-73
2020/12/24 11:14:50;;;;;;;1.30;1.20;;;8.10;99.90;;;;;;4918835;28;20227;-74
2020/12/24 11:17:16;;;;;;;1.10;1.10;;;8.10;99.90;;;;;;4920125;29;20227;-74
2020/12/24 11:19:42;;;;;;;1.10;1.10;;;8.20;99.90;;;;;;4920271;29;20259;-73
2020/12/24 11:22:07;;;;;;;1.93;1.37;;;8.20;99.90;;;;;;4888069;29;20707;-73
2020/12/24 11:24:33;;;;;;;1.97;1.60;;;8.30;99.90;;;;;;4887925;29;20286;-73
2020/12/24 11:26:59;;;;;;;3.00;2.13;;;8.40;99.90;;;;;;4887368;28;20236;-74
2020/12/24 11:29:24;;;;;;;3.00;2.60;;;8.40;99.90;;;;;;4904699;29;20228;-74
2020/12/24 11:31:50;;;;;;;3.67;3.30;;;8.40;99.90;;;;;;4886959;29;20220;-73
2020/12/24 11:34:17;;;;;;;4.73;4.33;;;8.50;99.90;;;;;;4914437;28;20315;-73
2020/12/24 11:36:44;;;;;;;2.70;2.50;;;8.50;99.90;;;;;;4917838;29;20231;-74
2020/12/24 11:39:10;;;;;;;5.53;3.53;;;8.60;99.90;;;;;;4914908;29;20563;-72
2020/12/24 11:41:36;;;;;;;9.90;6.57;;;8.60;99.90;;;;;;4896771;29;20555;-72
2020/12/24 11:44:02;;;;;;;6.30;4.77;;;8.60;99.90;;;;;;4915437;29;20234;-72
2020/12/24 11:46:28;;;;;;;4.40;3.33;;;8.60;99.90;;;;;;4913928;28;20236;-72
2020/12/24 11:48:55;;;;;;;2.90;2.57;;;8.60;99.90;;;;;;4910439;29;20561;-73
2020/12/24 11:51:21;;;;;;;1.97;1.87;;;8.70;99.90;;;;;;4914743;29;20224;-73
2020/12/24 11:53:50;;;;;;;2.00;1.83;;;8.70;99.90;;;;;;4931342;29;20559;-73
2020/12/24 11:56:20;;;;;;;2.10;2.00;;;8.70;99.90;;;;;;4915202;28;20463;-73
2020/12/24 11:58:49;;;;;;;1.83;1.67;;;8.70;99.90;;;;;;4896563;28;20834;-74
2020/12/24 12:01:19;;;;;;;1.90;1.40;;;8.70;99.90;;;;;;4913607;29;20460;-74
2020/12/24 12:03:46;;;;;;;2.20;1.70;;;8.70;99.90;;;;;;4911919;29;20467;-74
2020/12/24 12:06:15;;;;;;;4.80;3.00;;;8.70;99.90;;;;;;4912425;29;20463;-74
2020/12/24 12:08:41;;;;;;;1.90;1.50;;;8.70;99.90;;;;;;4916042;29;21012;-72
2020/12/24 12:11:07;;;;;;;5.27;2.20;;;8.80;99.90;;;;;;4901615;29;20475;-72
2020/12/24 12:13:36;;;;;;;5.57;3.83;;;8.70;99.90;;;;;;4915662;29;20254;-73
2020/12/24 12:16:05;;;;;;;2.53;2.20;;;8.70;99.90;;;;;;4918463;29;20563;-72
2020/12/24 12:18:32;;;;;;;1.30;1.20;;;8.70;99.90;;;;;;4906835;29;20480;-72
2020/12/24 12:20:58;;;;;;;1.20;1.10;;;8.70;99.90;;;;;;4899251;29;20977;-73
2020/12/24 12:23:24;;;;;;;0.70;0.70;;;8.60;99.90;;;;;;4904936;29;20563;-73
2020/12/24 12:25:50;;;;;;;0.60;0.50;;;8.60;99.90;;;;;;4888818;29;20471;-76
2020/12/24 12:28:15;;;;;;;0.90;0.67;;;8.50;99.90;;;;;;4888666;29;20250;-72
2020/12/24 12:30:41;;;;;;;0.40;0.40;;;8.60;99.90;;;;;;4887074;29;20228;-73
2020/12/24 12:33:07;;;;;;;1.87;0.53;;;8.60;99.90;;;;;;4889378;28;20263;-72
2020/12/24 12:35:32;;;;;;;1.00;0.87;;;8.70;99.90;;;;;;4895585;28;20224;-73
2020/12/24 12:37:58;;;;;;;3.07;1.67;;;8.70;99.90;;;;;;4895787;28;20239;-74
2020/12/24 12:40:24;;;;;;;1.27;1.17;;;8.70;99.90;;;;;;4910027;29;20318;-75
2020/12/24 12:42:50;;;;;;;1.80;1.53;;;8.80;99.90;;;;;;4913416;28;20226;-75
2020/12/24 12:45:16;;;;;;;1.63;1.40;;;8.80;99.90;;;;;;4900229;29;20468;-74
2020/12/24 12:47:41;;;;;;;1.20;1.13;;;8.90;99.90;;;;;;4910784;28;20319;-74
2020/12/24 12:50:11;;;;;;;1.13;0.90;;;8.90;99.90;;;;;;4911909;29;21428;-74
2020/12/24 12:52:37;;;;;;;1.07;1.00;;;8.90;99.90;;;;;;4897156;29;20757;-73
2020/12/24 12:55:07;;;;;;;2.87;0.60;;;8.80;99.90;;;;;;4913816;29;20594;-74
2020/12/24 12:57:37;;;;;;;0.70;0.70;;;8.80;99.90;;;;;;4920380;29;20456;-74
2020/12/24 13:00:07;;;;;;;0.40;0.40;;;8.80;99.90;;;;;;4932399;29;20456;-74